createdAt,value
2023-05-07T00:00:14.418Z,21.12
2023-05-07T00:00:45.842Z,21.10
2023-05-07T00:01:18.231Z,21.09
2023-05-07T00:01:50.862Z,21.09
2023-05-07T00:02:22.237Z,21.09
2023-05-07T00:02:53.757Z,21.08
2023-05-07T00:03:25.329Z,21.07
2023-05-07T00:03:57.013Z,21.07
2023-05-07T00:04:28.507Z,21.08
2023-05-07T00:05:00.167Z,21.10
2023-05-07T00:05:31.595Z,21.12
2023-05-07T00:06:02.872Z,21.12
2023-05-07T00:06:34.150Z,21.13
2023-05-07T00:07:05.694Z,21.11
2023-05-07T00:07:37.002Z,21.08
2023-05-07T00:08:08.452Z,21.08
2023-05-07T00:08:39.812Z,21.08
2023-05-07T00:09:11.091Z,21.05
2023-05-07T00:09:42.359Z,21.02
2023-05-07T00:10:13.907Z,21.02
2023-05-07T00:10:45.466Z,21.00
2023-05-07T00:11:16.731Z,20.98
2023-05-07T00:11:47.994Z,20.95
2023-05-07T00:12:19.251Z,20.96
2023-05-07T00:12:50.539Z,20.95
2023-05-07T00:13:21.907Z,20.94
2023-05-07T00:13:53.298Z,20.94
2023-05-07T00:14:24.558Z,20.94
2023-05-07T00:14:55.829Z,20.94
2023-05-07T00:15:27.087Z,20.94
2023-05-07T00:15:58.387Z,20.92
2023-05-07T00:16:29.741Z,20.88
2023-05-07T00:17:01.050Z,20.89
2023-05-07T00:17:33.355Z,20.96
2023-05-07T00:18:04.748Z,20.95
2023-05-07T00:18:36.096Z,20.98
2023-05-07T00:19:07.383Z,21.02
2023-05-07T00:19:38.650Z,21.01
2023-05-07T00:20:10.296Z,21.04
2023-05-07T00:20:41.767Z,21.03
2023-05-07T00:21:13.052Z,21.02
2023-05-07T00:21:44.351Z,21.05
2023-05-07T00:22:16.106Z,21.03
2023-05-07T00:22:47.459Z,21.04
2023-05-07T00:23:18.740Z,21.01
2023-05-07T00:23:49.995Z,21.03
2023-05-07T00:24:21.338Z,21.02
2023-05-07T00:24:52.618Z,21.06
2023-05-07T00:25:23.894Z,21.06
2023-05-07T00:25:55.193Z,21.07
2023-05-07T00:26:26.480Z,21.11
2023-05-07T00:26:57.757Z,21.09
2023-05-07T00:27:29.049Z,21.07
2023-05-07T00:28:00.322Z,21.07
2023-05-07T00:28:31.664Z,21.08
2023-05-07T00:29:02.961Z,21.07
2023-05-07T00:29:34.274Z,21.09
2023-05-07T00:30:05.839Z,21.07
2023-05-07T00:30:37.106Z,21.07
2023-05-07T00:31:08.372Z,21.05
2023-05-07T00:31:39.663Z,21.07
2023-05-07T00:32:11.004Z,21.07
2023-05-07T00:32:42.406Z,21.06
2023-05-07T00:33:13.691Z,21.07
2023-05-07T00:33:44.952Z,21.07
2023-05-07T00:34:16.250Z,21.07
2023-05-07T00:34:47.540Z,21.08
2023-05-07T00:35:18.803Z,21.08
2023-05-07T00:35:50.137Z,21.05
2023-05-07T00:36:21.426Z,21.05
2023-05-07T00:36:52.712Z,21.07
2023-05-07T00:37:24.169Z,21.05
2023-05-07T00:37:55.454Z,21.06
2023-05-07T00:38:26.756Z,21.08
2023-05-07T00:38:58.155Z,21.08
2023-05-07T00:39:29.444Z,21.08
2023-05-07T00:40:00.694Z,21.05
2023-05-07T00:40:31.963Z,21.05
2023-05-07T00:41:03.244Z,21.04
2023-05-07T00:41:34.496Z,21.07
2023-05-07T00:42:05.789Z,21.07
2023-05-07T00:42:37.046Z,21.05
2023-05-07T00:43:08.371Z,21.06
2023-05-07T00:43:39.667Z,21.09
2023-05-07T00:44:10.959Z,21.09
2023-05-07T00:44:42.278Z,21.09
2023-05-07T00:45:14.235Z,21.08
2023-05-07T00:45:45.561Z,21.08
2023-05-07T00:46:16.944Z,21.05
2023-05-07T00:46:48.381Z,21.06
2023-05-07T00:47:19.672Z,21.05
2023-05-07T00:47:50.994Z,21.05
2023-05-07T00:48:22.360Z,21.04
2023-05-07T00:48:53.648Z,21.03
2023-05-07T00:49:29.371Z,21.04
2023-05-07T00:50:00.654Z,21.06
2023-05-07T00:50:32.338Z,21.05
2023-05-07T00:51:03.707Z,21.06
2023-05-07T00:51:35.034Z,21.06
2023-05-07T00:52:10.146Z,21.05
2023-05-07T00:52:41.444Z,21.03
2023-05-07T00:53:12.783Z,21.03
2023-05-07T00:53:44.121Z,21.05
2023-05-07T00:54:15.449Z,21.07
2023-05-07T00:54:46.786Z,21.03
2023-05-07T00:55:18.136Z,21.05
2023-05-07T00:55:49.418Z,21.03
2023-05-07T00:56:23.221Z,21.02
2023-05-07T00:56:54.852Z,21.03
2023-05-07T00:57:26.144Z,21.03
2023-05-07T00:57:57.446Z,21.02
2023-05-07T00:58:28.803Z,21.05
2023-05-07T00:59:00.260Z,21.04
2023-05-07T00:59:32.443Z,21.04
2023-05-07T01:00:07.361Z,21.05
2023-05-07T01:00:38.846Z,21.03
2023-05-07T01:01:10.424Z,21.05
2023-05-07T01:01:41.860Z,21.05
2023-05-07T01:02:13.173Z,21.05
2023-05-07T01:02:44.502Z,21.06
2023-05-07T01:03:16.292Z,21.07
2023-05-07T01:03:48.073Z,21.07
2023-05-07T01:04:19.822Z,21.06
2023-05-07T01:04:51.390Z,21.07
2023-05-07T01:05:23.352Z,21.07
2023-05-07T01:05:54.682Z,21.06
2023-05-07T01:06:26.655Z,21.06
2023-05-07T01:06:58.538Z,21.05
2023-05-07T01:07:30.704Z,21.06
2023-05-07T01:08:02.217Z,21.06
2023-05-07T01:08:33.506Z,21.03
2023-05-07T01:09:04.820Z,21.01
2023-05-07T01:09:36.197Z,21.03
2023-05-07T01:10:07.717Z,21.07
2023-05-07T01:10:39.023Z,21.05
2023-05-07T01:11:10.347Z,21.07
2023-05-07T01:11:41.676Z,21.07
2023-05-07T01:12:12.955Z,21.07
2023-05-07T01:12:44.230Z,21.07
2023-05-07T01:13:15.589Z,21.04
2023-05-07T01:13:47.441Z,21.06
2023-05-07T01:14:18.784Z,21.07
2023-05-07T01:14:50.076Z,21.05
2023-05-07T01:15:21.390Z,21.01
2023-05-07T01:15:52.670Z,21.02
2023-05-07T01:16:23.979Z,21.02
2023-05-07T01:16:55.328Z,21.05
2023-05-07T01:17:26.701Z,21.03
2023-05-07T01:17:58.095Z,21.05
2023-05-07T01:18:31.982Z,21.01
2023-05-07T01:19:03.248Z,21.03
2023-05-07T01:19:34.624Z,21.02
2023-05-07T01:20:06.360Z,21.02
2023-05-07T01:20:37.660Z,21.03
2023-05-07T01:21:08.965Z,21.07
2023-05-07T01:21:40.224Z,21.04
2023-05-07T01:22:11.891Z,21.05
2023-05-07T01:22:43.245Z,21.06
2023-05-07T01:23:14.491Z,21.05
2023-05-07T01:23:46.007Z,21.05
2023-05-07T01:24:17.307Z,21.05
2023-05-07T01:24:48.644Z,21.04
2023-05-07T01:25:20.009Z,21.04
2023-05-07T01:25:54.597Z,21.02
2023-05-07T01:26:25.921Z,21.02
2023-05-07T01:26:57.192Z,21.05
2023-05-07T01:27:28.655Z,21.07
2023-05-07T01:27:59.907Z,21.06
2023-05-07T01:28:31.166Z,21.07
2023-05-07T01:29:02.446Z,21.07
2023-05-07T01:29:33.748Z,21.03
2023-05-07T01:30:05.668Z,21.03
2023-05-07T01:30:36.946Z,21.01
2023-05-07T01:31:08.320Z,20.99
2023-05-07T01:31:39.807Z,21.01
2023-05-07T01:32:11.194Z,21.02
2023-05-07T01:32:48.357Z,21.05
2023-05-07T01:33:20.346Z,21.03
2023-05-07T01:33:51.641Z,21.05
2023-05-07T01:34:22.920Z,21.04
2023-05-07T01:34:54.213Z,21.03
2023-05-07T01:35:26.052Z,21.03
2023-05-07T01:35:57.339Z,21.03
2023-05-07T01:36:28.853Z,21.05
2023-05-07T01:37:00.117Z,21.05
2023-05-07T01:37:31.398Z,21.03
2023-05-07T01:38:03.080Z,21.03
2023-05-07T01:38:34.339Z,21.04
2023-05-07T01:39:05.634Z,21.05
2023-05-07T01:39:36.893Z,21.05
2023-05-07T01:40:08.659Z,21.05
2023-05-07T01:40:40.204Z,21.05
2023-05-07T01:41:12.134Z,21.05
2023-05-07T01:41:43.873Z,21.06
2023-05-07T01:42:15.136Z,21.05
2023-05-07T01:42:46.385Z,21.03
2023-05-07T01:43:17.666Z,21.03
2023-05-07T01:43:49.240Z,21.03
2023-05-07T01:44:20.524Z,21.02
2023-05-07T01:44:51.778Z,21.02
2023-05-07T01:45:23.043Z,21.02
2023-05-07T01:45:54.391Z,21.05
2023-05-07T01:46:25.745Z,21.00
2023-05-07T01:46:57.725Z,21.01
2023-05-07T01:47:29.053Z,21.04
2023-05-07T01:48:00.466Z,21.02
2023-05-07T01:48:31.844Z,21.01
2023-05-07T01:49:03.196Z,21.03
2023-05-07T01:49:34.481Z,21.03
2023-05-07T01:50:08.516Z,21.02
2023-05-07T01:50:39.852Z,21.03
2023-05-07T01:51:11.169Z,21.03
2023-05-07T01:51:42.475Z,21.03
2023-05-07T01:52:13.774Z,21.05
2023-05-07T01:52:45.061Z,21.06
2023-05-07T01:53:16.456Z,21.07
2023-05-07T01:53:47.756Z,21.05
2023-05-07T01:54:19.055Z,21.05
2023-05-07T01:54:50.361Z,21.03
2023-05-07T01:55:21.659Z,21.02
2023-05-07T01:55:53.000Z,21.03
2023-05-07T01:56:24.758Z,21.01
2023-05-07T01:56:56.832Z,21.01
2023-05-07T01:57:28.167Z,21.00
2023-05-07T01:57:59.408Z,21.03
2023-05-07T01:58:30.973Z,21.04
2023-05-07T01:59:02.302Z,21.05
2023-05-07T01:59:33.708Z,21.03
2023-05-07T02:00:05.279Z,21.05
2023-05-07T02:00:36.690Z,21.03
2023-05-07T02:01:08.034Z,21.05
2023-05-07T02:01:39.359Z,21.05
2023-05-07T02:02:10.818Z,21.04
2023-05-07T02:02:42.257Z,21.05
2023-05-07T02:03:13.741Z,21.07
2023-05-07T02:03:45.178Z,21.05
2023-05-07T02:04:16.655Z,21.03
2023-05-07T02:04:48.109Z,21.04
2023-05-07T02:05:19.444Z,21.03
2023-05-07T02:05:50.730Z,21.02
2023-05-07T02:06:22.113Z,20.99
2023-05-07T02:06:53.453Z,20.99
2023-05-07T02:07:24.773Z,21.00
2023-05-07T02:07:56.064Z,21.02
2023-05-07T02:08:27.385Z,21.03
2023-05-07T02:08:58.648Z,21.04
2023-05-07T02:09:29.908Z,21.04
2023-05-07T02:10:01.229Z,21.05
2023-05-07T02:10:32.502Z,21.05
2023-05-07T02:11:03.834Z,21.05
2023-05-07T02:11:35.226Z,21.04
2023-05-07T02:12:06.542Z,21.04
2023-05-07T02:12:37.860Z,21.05
2023-05-07T02:13:09.294Z,21.03
2023-05-07T02:13:40.613Z,21.03
2023-05-07T02:14:11.908Z,21.04
2023-05-07T02:14:43.217Z,21.05
2023-05-07T02:15:14.501Z,21.02
2023-05-07T02:15:45.801Z,21.00
2023-05-07T02:16:17.132Z,21.00
2023-05-07T02:16:48.580Z,21.00
2023-05-07T02:17:19.947Z,21.00
2023-05-07T02:18:06.962Z,20.99
2023-05-07T02:18:38.258Z,21.01
2023-05-07T02:19:09.551Z,21.02
2023-05-07T02:19:40.877Z,21.01
2023-05-07T02:20:12.504Z,21.03
2023-05-07T02:20:43.986Z,21.01
2023-05-07T02:21:15.316Z,21.00
2023-05-07T02:21:46.607Z,21.01
2023-05-07T02:22:18.007Z,21.02
2023-05-07T02:22:49.283Z,21.01
2023-05-07T02:23:20.608Z,21.00
2023-05-07T02:23:51.952Z,21.00
2023-05-07T02:24:23.209Z,21.00
2023-05-07T02:24:54.527Z,21.01
2023-05-07T02:25:25.817Z,21.00
2023-05-07T02:25:57.134Z,21.02
2023-05-07T02:26:28.399Z,21.03
2023-05-07T02:26:59.653Z,21.03
2023-05-07T02:27:30.941Z,21.03
2023-05-07T02:28:02.230Z,21.05
2023-05-07T02:28:33.513Z,21.03
2023-05-07T02:29:04.792Z,21.03
2023-05-07T02:29:36.081Z,21.03
2023-05-07T02:30:07.646Z,21.02
2023-05-07T02:30:38.934Z,21.05
2023-05-07T02:31:10.250Z,21.03
2023-05-07T02:31:41.569Z,21.06
2023-05-07T02:32:13.020Z,21.07
2023-05-07T02:32:44.394Z,21.07
2023-05-07T02:33:15.767Z,21.07
2023-05-07T02:33:47.052Z,21.06
2023-05-07T02:34:18.337Z,21.05
2023-05-07T02:34:51.141Z,21.06
2023-05-07T02:35:22.462Z,21.04
2023-05-07T02:35:53.765Z,21.05
2023-05-07T02:36:25.066Z,21.04
2023-05-07T02:36:56.326Z,21.02
2023-05-07T02:37:27.585Z,21.02
2023-05-07T02:37:58.876Z,21.01
2023-05-07T02:38:30.163Z,21.03
2023-05-07T02:39:01.429Z,21.05
2023-05-07T02:39:32.728Z,21.03
2023-05-07T02:40:04.158Z,21.04
2023-05-07T02:40:35.441Z,21.03
2023-05-07T02:41:06.715Z,21.01
2023-05-07T02:41:38.060Z,21.02
2023-05-07T02:42:09.331Z,21.02
2023-05-07T02:42:40.619Z,21.05
2023-05-07T02:43:11.913Z,21.03
2023-05-07T02:43:43.210Z,21.03
2023-05-07T02:44:14.479Z,21.02
2023-05-07T02:44:45.764Z,21.01
2023-05-07T02:45:17.134Z,21.02
2023-05-07T02:45:48.466Z,21.00
2023-05-07T02:46:19.818Z,21.00
2023-05-07T02:46:51.131Z,20.98
2023-05-07T02:47:22.455Z,21.00
2023-05-07T02:47:53.912Z,20.99
2023-05-07T02:48:25.252Z,21.00
2023-05-07T02:48:56.545Z,21.00
2023-05-07T02:49:27.826Z,21.00
2023-05-07T02:49:59.110Z,20.99
2023-05-07T02:50:30.438Z,21.00
2023-05-07T02:51:01.731Z,21.02
2023-05-07T02:51:33.027Z,20.99
2023-05-07T02:52:04.298Z,21.01
2023-05-07T02:52:35.615Z,20.99
2023-05-07T02:53:06.882Z,20.99
2023-05-07T02:53:38.146Z,20.97
2023-05-07T02:54:09.480Z,20.97
2023-05-07T02:54:40.783Z,20.97
2023-05-07T02:55:12.136Z,20.99
2023-05-07T02:55:43.419Z,20.99
2023-05-07T02:56:14.712Z,20.99
2023-05-07T02:56:45.972Z,20.99
2023-05-07T02:57:17.228Z,21.00
2023-05-07T02:57:48.510Z,20.99
2023-05-07T02:58:19.795Z,21.00
2023-05-07T02:58:51.090Z,20.99
2023-05-07T02:59:22.382Z,20.99
2023-05-07T02:59:53.665Z,20.97
2023-05-07T03:00:25.116Z,20.99
2023-05-07T03:00:56.474Z,20.99
2023-05-07T03:01:27.932Z,21.00
2023-05-07T03:01:59.234Z,21.00
2023-05-07T03:02:30.541Z,20.98
2023-05-07T03:03:01.905Z,20.98
2023-05-07T03:03:33.238Z,20.97
2023-05-07T03:04:04.603Z,20.98
2023-05-07T03:04:36.072Z,20.98
2023-05-07T03:05:07.616Z,20.98
2023-05-07T03:05:38.887Z,20.98
2023-05-07T03:06:10.206Z,20.98
2023-05-07T03:06:41.775Z,20.97
2023-05-07T03:07:13.079Z,20.98
2023-05-07T03:07:44.365Z,20.94
2023-05-07T03:08:15.646Z,20.96
2023-05-07T03:08:46.913Z,20.98
2023-05-07T03:09:18.332Z,20.97
2023-05-07T03:09:49.622Z,20.97
2023-05-07T03:10:20.888Z,20.96
2023-05-07T03:10:52.172Z,20.96
2023-05-07T03:11:23.479Z,20.97
2023-05-07T03:11:54.782Z,20.98
2023-05-07T03:12:26.073Z,20.98
2023-05-07T03:12:57.460Z,20.98
2023-05-07T03:13:28.843Z,20.98
2023-05-07T03:14:00.184Z,20.97
2023-05-07T03:14:31.447Z,20.96
2023-05-07T03:15:02.750Z,20.97
2023-05-07T03:15:34.081Z,20.96
2023-05-07T03:16:05.486Z,20.94
2023-05-07T03:16:36.768Z,20.93
2023-05-07T03:17:08.003Z,20.95
2023-05-07T03:17:39.493Z,20.96
2023-05-07T03:18:10.891Z,20.96
2023-05-07T03:18:42.248Z,20.97
2023-05-07T03:19:13.581Z,20.95
2023-05-07T03:19:44.861Z,20.93
2023-05-07T03:20:16.379Z,20.95
2023-05-07T03:20:49.012Z,20.95
2023-05-07T03:21:20.347Z,20.94
2023-05-07T03:21:51.834Z,20.93
2023-05-07T03:22:23.178Z,20.95
2023-05-07T03:22:54.418Z,20.94
2023-05-07T03:23:25.719Z,20.94
2023-05-07T03:23:57.118Z,20.94
2023-05-07T03:24:28.387Z,20.95
2023-05-07T03:24:59.666Z,20.96
2023-05-07T03:25:30.992Z,20.94
2023-05-07T03:26:02.316Z,20.94
2023-05-07T03:26:33.641Z,20.93
2023-05-07T03:27:04.929Z,20.93
2023-05-07T03:27:36.313Z,20.94
2023-05-07T03:28:07.629Z,20.93
2023-05-07T03:28:38.959Z,20.94
2023-05-07T03:29:10.281Z,20.95
2023-05-07T03:29:41.541Z,20.96
2023-05-07T03:30:13.143Z,20.96
2023-05-07T03:30:44.654Z,20.96
2023-05-07T03:31:15.955Z,20.95
2023-05-07T03:31:47.351Z,20.94
2023-05-07T03:32:18.698Z,20.94
2023-05-07T03:32:50.112Z,20.93
2023-05-07T03:33:21.424Z,20.94
2023-05-07T03:33:53.312Z,20.93
2023-05-07T03:34:24.590Z,20.94
2023-05-07T03:34:55.865Z,20.95
2023-05-07T03:35:27.219Z,20.93
2023-05-07T03:35:58.547Z,20.94
2023-05-07T03:36:29.909Z,20.93
2023-05-07T03:37:01.224Z,20.94
2023-05-07T03:37:32.534Z,20.93
2023-05-07T03:38:03.859Z,20.92
2023-05-07T03:38:35.162Z,20.94
2023-05-07T03:39:06.462Z,20.94
2023-05-07T03:39:37.761Z,20.94
2023-05-07T03:40:09.376Z,20.95
2023-05-07T03:40:40.797Z,20.94
2023-05-07T03:41:12.412Z,20.94
2023-05-07T03:41:43.678Z,20.94
2023-05-07T03:42:15.366Z,20.95
2023-05-07T03:42:46.629Z,20.92
2023-05-07T03:43:17.919Z,20.93
2023-05-07T03:43:49.326Z,20.95
2023-05-07T03:44:20.608Z,20.95
2023-05-07T03:44:51.898Z,20.94
2023-05-07T03:45:23.225Z,20.94
2023-05-07T03:45:54.541Z,20.94
2023-05-07T03:46:25.844Z,20.95
2023-05-07T03:46:57.146Z,20.92
2023-05-07T03:47:28.519Z,20.90
2023-05-07T03:47:59.929Z,20.92
2023-05-07T03:48:31.214Z,20.92
2023-05-07T03:49:02.510Z,20.92
2023-05-07T03:49:33.827Z,20.91
2023-05-07T03:50:05.299Z,20.91
2023-05-07T03:50:36.720Z,20.91
2023-05-07T03:51:08.016Z,20.91
2023-05-07T03:51:39.350Z,20.89
2023-05-07T03:52:10.622Z,20.90
2023-05-07T03:52:41.946Z,20.90
2023-05-07T03:53:13.257Z,20.91
2023-05-07T03:53:44.553Z,20.91
2023-05-07T03:54:15.904Z,20.92
2023-05-07T03:54:47.190Z,20.90
2023-05-07T03:55:18.485Z,20.91
2023-05-07T03:55:49.877Z,20.92
2023-05-07T03:56:21.288Z,20.91
2023-05-07T03:56:52.568Z,20.91
2023-05-07T03:57:23.880Z,20.92
2023-05-07T03:57:55.202Z,20.92
2023-05-07T03:58:26.484Z,20.92
2023-05-07T03:58:57.752Z,20.93
2023-05-07T03:59:29.040Z,20.90
2023-05-07T04:00:00.312Z,20.91
2023-05-07T04:00:31.607Z,20.90
2023-05-07T04:01:02.993Z,20.91
2023-05-07T04:01:34.355Z,20.90
2023-05-07T04:02:05.920Z,20.91
2023-05-07T04:02:37.389Z,20.90
2023-05-07T04:03:08.922Z,20.90
2023-05-07T04:03:40.475Z,20.90
2023-05-07T04:04:11.835Z,20.91
2023-05-07T04:04:43.131Z,20.90
2023-05-07T04:05:14.887Z,20.89
2023-05-07T04:05:46.212Z,20.89
2023-05-07T04:06:17.490Z,20.91
2023-05-07T04:06:48.762Z,20.92
2023-05-07T04:07:20.040Z,20.91
2023-05-07T04:07:51.301Z,20.90
2023-05-07T04:08:22.592Z,20.90
2023-05-07T04:08:53.883Z,20.90
2023-05-07T04:09:25.185Z,20.90
2023-05-07T04:09:56.461Z,20.91
2023-05-07T04:10:27.731Z,20.90
2023-05-07T04:10:59.119Z,20.90
2023-05-07T04:11:30.435Z,20.91
2023-05-07T04:12:01.705Z,20.90
2023-05-07T04:12:33.006Z,20.91
2023-05-07T04:13:04.311Z,20.91
2023-05-07T04:13:35.626Z,20.91
2023-05-07T04:14:07.015Z,20.91
2023-05-07T04:14:38.279Z,20.91
2023-05-07T04:15:09.794Z,20.91
2023-05-07T04:15:41.076Z,20.90
2023-05-07T04:16:12.377Z,20.89
2023-05-07T04:16:43.819Z,20.89
2023-05-07T04:17:15.196Z,20.91
2023-05-07T04:17:46.579Z,20.90
2023-05-07T04:18:17.902Z,20.91
2023-05-07T04:18:49.161Z,20.91
2023-05-07T04:19:20.429Z,20.92
2023-05-07T04:19:51.720Z,20.91
2023-05-07T04:20:23.017Z,20.91
2023-05-07T04:20:54.317Z,20.90
2023-05-07T04:21:25.620Z,20.87
2023-05-07T04:21:56.935Z,20.88
2023-05-07T04:22:28.263Z,20.90
2023-05-07T04:22:59.583Z,20.88
2023-05-07T04:23:30.872Z,20.87
2023-05-07T04:24:03.833Z,20.88
2023-05-07T04:24:35.110Z,20.90
2023-05-07T04:25:06.715Z,20.91
2023-05-07T04:25:37.965Z,20.90
2023-05-07T04:26:09.254Z,20.89
2023-05-07T04:26:40.505Z,20.89
2023-05-07T04:27:11.843Z,20.89
2023-05-07T04:27:43.324Z,20.90
2023-05-07T04:28:14.650Z,20.90
2023-05-07T04:28:45.912Z,20.89
2023-05-07T04:29:17.202Z,20.88
2023-05-07T04:29:48.465Z,20.89
2023-05-07T04:30:19.700Z,20.88
2023-05-07T04:30:51.018Z,20.89
2023-05-07T04:31:22.970Z,20.89
2023-05-07T04:31:54.501Z,20.88
2023-05-07T04:32:25.896Z,20.90
2023-05-07T04:32:57.285Z,20.88
2023-05-07T04:33:28.703Z,20.87
2023-05-07T04:33:59.998Z,20.88
2023-05-07T04:34:31.289Z,20.89
2023-05-07T04:35:02.616Z,20.89
2023-05-07T04:35:33.870Z,20.87
2023-05-07T04:36:05.325Z,20.87
2023-05-07T04:36:36.623Z,20.89
2023-05-07T04:37:07.928Z,20.90
2023-05-07T04:37:39.212Z,20.88
2023-05-07T04:38:10.525Z,20.87
2023-05-07T04:38:41.900Z,20.87
2023-05-07T04:39:13.198Z,20.88
2023-05-07T04:39:44.484Z,20.89
2023-05-07T04:40:15.828Z,20.92
2023-05-07T04:40:47.170Z,20.91
2023-05-07T04:41:18.491Z,20.91
2023-05-07T04:41:49.768Z,20.91
2023-05-07T04:42:21.044Z,20.88
2023-05-07T04:42:52.340Z,20.88
2023-05-07T04:43:23.709Z,20.89
2023-05-07T04:43:54.962Z,20.89
2023-05-07T04:44:26.311Z,20.89
2023-05-07T04:44:57.553Z,20.89
2023-05-07T04:45:28.829Z,20.89
2023-05-07T04:46:00.214Z,20.89
2023-05-07T04:46:31.569Z,20.89
2023-05-07T04:47:02.899Z,20.90
2023-05-07T04:47:34.161Z,20.89
2023-05-07T04:48:05.708Z,20.86
2023-05-07T04:48:37.005Z,20.89
2023-05-07T04:49:08.303Z,20.88
2023-05-07T04:49:39.615Z,20.88
2023-05-07T04:50:11.195Z,20.88
2023-05-07T04:50:42.652Z,20.88
2023-05-07T04:51:13.979Z,20.89
2023-05-07T04:51:45.375Z,20.89
2023-05-07T04:52:16.630Z,20.90
2023-05-07T04:52:47.926Z,20.89
2023-05-07T04:53:19.227Z,20.88
2023-05-07T04:53:50.546Z,20.91
2023-05-07T04:54:21.844Z,20.89
2023-05-07T04:54:53.148Z,20.92
2023-05-07T04:55:24.542Z,20.89
2023-05-07T04:55:56.367Z,20.89
2023-05-07T04:56:28.612Z,20.90
2023-05-07T04:56:59.896Z,20.90
2023-05-07T04:57:31.187Z,20.87
2023-05-07T04:58:02.461Z,20.88
2023-05-07T04:58:33.812Z,20.88
2023-05-07T04:59:05.110Z,20.88
2023-05-07T04:59:36.368Z,20.89
2023-05-07T05:00:08.387Z,20.89
2023-05-07T05:00:39.854Z,20.88
2023-05-07T05:01:11.131Z,20.90
2023-05-07T05:01:42.508Z,20.89
2023-05-07T05:02:13.820Z,20.91
2023-05-07T05:02:45.214Z,20.91
2023-05-07T05:03:16.665Z,20.91
2023-05-07T05:03:48.110Z,20.91
2023-05-07T05:04:19.464Z,20.89
2023-05-07T05:04:50.774Z,20.91
2023-05-07T05:05:22.078Z,20.89
2023-05-07T05:05:53.362Z,20.88
2023-05-07T05:06:24.627Z,20.89
2023-05-07T05:06:55.885Z,20.88
2023-05-07T05:07:27.180Z,20.88
2023-05-07T05:07:58.473Z,20.90
2023-05-07T05:08:30.570Z,20.89
2023-05-07T05:09:01.862Z,20.89
2023-05-07T05:09:33.153Z,20.88
2023-05-07T05:10:05.911Z,20.90
2023-05-07T05:10:37.166Z,20.89
2023-05-07T05:11:08.462Z,20.92
2023-05-07T05:11:39.725Z,20.92
2023-05-07T05:12:11.017Z,20.91
2023-05-07T05:12:42.292Z,20.91
2023-05-07T05:13:13.756Z,20.88
2023-05-07T05:13:45.159Z,20.91
2023-05-07T05:14:16.432Z,20.90
2023-05-07T05:14:47.691Z,20.90
2023-05-07T05:15:19.034Z,20.91
2023-05-07T05:15:50.631Z,20.91
2023-05-07T05:16:22.027Z,20.91
2023-05-07T05:16:53.351Z,20.92
2023-05-07T05:17:24.638Z,20.91
2023-05-07T05:17:56.002Z,20.91
2023-05-07T05:18:27.299Z,20.91
2023-05-07T05:18:58.554Z,20.90
2023-05-07T05:19:29.877Z,20.90
2023-05-07T05:20:01.197Z,20.90
2023-05-07T05:20:32.549Z,20.92
2023-05-07T05:21:03.863Z,20.92
2023-05-07T05:21:35.189Z,20.92
2023-05-07T05:22:06.477Z,20.93
2023-05-07T05:22:37.846Z,20.92
2023-05-07T05:23:09.176Z,20.93
2023-05-07T05:23:40.449Z,20.92
2023-05-07T05:24:11.764Z,20.91
2023-05-07T05:24:43.079Z,20.92
2023-05-07T05:25:14.432Z,20.91
2023-05-07T05:25:45.764Z,20.93
2023-05-07T05:26:17.032Z,20.92
2023-05-07T05:26:48.289Z,20.92
2023-05-07T05:27:19.595Z,20.93
2023-05-07T05:27:50.931Z,20.89
2023-05-07T05:28:22.239Z,20.91
2023-05-07T05:28:53.496Z,20.92
2023-05-07T05:29:24.744Z,20.93
2023-05-07T05:29:56.182Z,20.92
2023-05-07T05:30:27.454Z,20.91
2023-05-07T05:30:58.773Z,20.90
2023-05-07T05:31:30.147Z,20.91
2023-05-07T05:32:01.560Z,20.91
2023-05-07T05:32:34.669Z,20.90
2023-05-07T05:33:06.180Z,20.92
2023-05-07T05:33:37.509Z,20.91
2023-05-07T05:34:08.804Z,20.90
2023-05-07T05:34:40.125Z,20.91
2023-05-07T05:35:11.455Z,20.92
2023-05-07T05:35:42.845Z,20.92
2023-05-07T05:36:14.283Z,20.93
2023-05-07T05:36:45.562Z,20.94
2023-05-07T05:37:16.852Z,20.93
2023-05-07T05:37:48.122Z,20.94
2023-05-07T05:38:19.652Z,20.94
2023-05-07T05:38:50.958Z,20.93
2023-05-07T05:39:22.266Z,20.95
2023-05-07T05:39:53.717Z,20.95
2023-05-07T05:40:25.049Z,20.94
2023-05-07T05:40:56.822Z,20.95
2023-05-07T05:41:28.190Z,20.93
2023-05-07T05:41:59.473Z,20.94
2023-05-07T05:42:30.750Z,20.94
2023-05-07T05:43:02.061Z,20.93
2023-05-07T05:43:33.404Z,20.94
2023-05-07T05:44:04.688Z,20.92
2023-05-07T05:44:35.966Z,20.93
2023-05-07T05:45:07.603Z,20.90
2023-05-07T05:45:38.892Z,20.93
2023-05-07T05:46:10.207Z,20.93
2023-05-07T05:46:41.558Z,20.92
2023-05-07T05:47:12.947Z,20.93
2023-05-07T05:47:44.289Z,20.93
2023-05-07T05:48:15.651Z,20.93
2023-05-07T05:48:46.958Z,20.94
2023-05-07T05:49:18.218Z,20.94
2023-05-07T05:49:49.495Z,20.95
2023-05-07T05:50:20.785Z,20.96
2023-05-07T05:50:52.131Z,20.96
2023-05-07T05:51:23.420Z,20.96
2023-05-07T05:51:54.719Z,20.94
2023-05-07T05:52:26.029Z,20.94
2023-05-07T05:52:57.311Z,20.95
2023-05-07T05:53:28.615Z,20.94
2023-05-07T05:53:59.905Z,20.95
2023-05-07T05:54:31.191Z,20.95
2023-05-07T05:55:02.481Z,20.93
2023-05-07T05:55:33.776Z,20.92
2023-05-07T05:56:05.238Z,20.93
2023-05-07T05:56:37.206Z,20.95
2023-05-07T05:57:08.438Z,20.95
2023-05-07T05:57:39.726Z,20.95
2023-05-07T05:58:11.017Z,20.95
2023-05-07T05:58:42.399Z,20.94
2023-05-07T05:59:13.716Z,20.94
2023-05-07T05:59:44.998Z,20.96
2023-05-07T06:00:16.374Z,20.94
2023-05-07T06:00:47.669Z,20.94
2023-05-07T06:01:19.213Z,20.95
2023-05-07T06:01:50.536Z,20.96
2023-05-07T06:02:21.954Z,20.96
2023-05-07T06:02:53.359Z,20.95
2023-05-07T06:03:24.665Z,20.95
2023-05-07T06:03:55.991Z,20.95
2023-05-07T06:04:27.364Z,20.95
2023-05-07T06:04:58.731Z,20.96
2023-05-07T06:05:30.187Z,20.97
2023-05-07T06:06:01.538Z,20.96
2023-05-07T06:06:32.809Z,20.97
2023-05-07T06:07:04.090Z,20.96
2023-05-07T06:07:35.460Z,20.98
2023-05-07T06:08:06.711Z,20.97
2023-05-07T06:08:38.045Z,20.96
2023-05-07T06:09:09.333Z,20.97
2023-05-07T06:09:40.635Z,20.96
2023-05-07T06:10:12.065Z,20.96
2023-05-07T06:10:43.615Z,20.95
2023-05-07T06:11:14.901Z,20.96
2023-05-07T06:11:46.193Z,20.96
2023-05-07T06:12:17.520Z,20.96
2023-05-07T06:12:48.909Z,20.97
2023-05-07T06:13:20.309Z,20.97
2023-05-07T06:13:51.673Z,20.96
2023-05-07T06:14:22.950Z,20.96
2023-05-07T06:14:54.240Z,20.97
2023-05-07T06:15:25.510Z,20.99
2023-05-07T06:15:56.772Z,20.99
2023-05-07T06:16:28.183Z,20.99
2023-05-07T06:16:59.520Z,20.98
2023-05-07T06:17:30.830Z,20.98
2023-05-07T06:18:02.165Z,20.99
2023-05-07T06:18:33.484Z,20.98
2023-05-07T06:19:04.797Z,20.99
2023-05-07T06:19:36.084Z,21.00
2023-05-07T06:20:07.649Z,20.98
2023-05-07T06:20:38.938Z,20.97
2023-05-07T06:21:10.725Z,20.99
2023-05-07T06:21:41.998Z,20.99
2023-05-07T06:22:13.348Z,20.99
2023-05-07T06:22:44.643Z,21.01
2023-05-07T06:23:17.913Z,21.00
2023-05-07T06:23:49.508Z,21.00
2023-05-07T06:24:20.840Z,21.00
2023-05-07T06:24:52.144Z,21.01
2023-05-07T06:25:23.436Z,21.02
2023-05-07T06:25:54.705Z,21.01
2023-05-07T06:26:26.000Z,21.01
2023-05-07T06:26:57.492Z,21.01
2023-05-07T06:27:28.845Z,21.02
2023-05-07T06:28:00.143Z,21.01
2023-05-07T06:28:34.183Z,21.02
2023-05-07T06:29:05.512Z,21.01
2023-05-07T06:29:36.789Z,21.01
2023-05-07T06:30:08.593Z,21.01
2023-05-07T06:30:39.995Z,21.02
2023-05-07T06:31:17.200Z,21.02
2023-05-07T06:31:48.735Z,21.02
2023-05-07T06:32:20.045Z,21.02
2023-05-07T06:32:51.362Z,21.03
2023-05-07T06:33:22.647Z,21.03
2023-05-07T06:33:55.220Z,21.03
2023-05-07T06:34:26.575Z,21.03
2023-05-07T06:34:57.838Z,21.03
2023-05-07T06:35:29.085Z,21.02
2023-05-07T06:36:00.389Z,21.03
2023-05-07T06:36:31.714Z,21.04
2023-05-07T06:37:03.118Z,21.04
2023-05-07T06:37:34.420Z,21.03
2023-05-07T06:38:05.704Z,21.05
2023-05-07T06:38:36.980Z,21.03
2023-05-07T06:39:08.245Z,21.05
2023-05-07T06:39:39.563Z,21.05
2023-05-07T06:40:11.404Z,21.03
2023-05-07T06:40:42.893Z,21.03
2023-05-07T06:41:14.184Z,21.05
2023-05-07T06:41:45.479Z,21.05
2023-05-07T06:42:16.837Z,21.06
2023-05-07T06:42:48.135Z,21.07
2023-05-07T06:43:19.454Z,21.07
2023-05-07T06:43:50.747Z,21.06
2023-05-07T06:44:22.066Z,21.07
2023-05-07T06:44:53.376Z,21.07